Time;durP1;ratioP1;P1;durP2;ratioP2;P2;SDS_P1;SDS_P2;PMS_P1;PMS_P2;Temp;Humidity;BMP_temperature;BMP_pressure;BME280_temperature;BME280_humidity;BME280_pressure;Samples;Min_cycle;Max_cycle;Signal;HPM_P1;HPM_P2
2022/04/02 00:01:24;;;;;;;5.50;2.72;;;0.80;99.90;;;;;;4935503;28;20204;-63
2022/04/02 00:03:51;;;;;;;7.88;2.90;;;0.80;99.90;;;;;;4954463;28;20043;-63
2022/04/02 00:06:16;;;;;;;7.40;3.65;;;0.80;99.90;;;;;;4923404;28;20054;-62
2022/04/02 00:08:42;;;;;;;4.40;2.80;;;0.80;99.90;;;;;;4968001;28;20456;-63
2022/04/02 00:11:08;;;;;;;6.05;2.95;;;0.80;99.90;;;;;;4952561;28;20109;-62
2022/04/02 00:13:35;;;;;;;5.18;3.25;;;0.80;99.90;;;;;;4944889;28;20035;-63
2022/04/02 00:16:02;;;;;;;6.32;3.35;;;0.80;99.90;;;;;;4968649;28;20086;-62
2022/04/02 00:18:31;;;;;;;4.18;2.63;;;0.80;99.90;;;;;;4943812;28;20057;-62
2022/04/02 00:20:57;;;;;;;4.50;2.97;;;0.70;99.90;;;;;;4969528;28;20057;-62
2022/04/02 00:23:35;;;;;;;5.43;3.05;;;0.70;99.90;;;;;;4948432;28;20047;-63
2022/04/02 00:26:02;;;;;;;3.28;2.60;;;0.70;99.90;;;;;;4951585;28;20598;-63
2022/04/02 00:28:29;;;;;;;5.32;3.00;;;0.70;99.90;;;;;;4970391;28;20484;-62
2022/04/02 00:30:55;;;;;;;8.02;3.05;;;0.70;99.90;;;;;;4971413;28;20139;-63
2022/04/02 00:33:21;;;;;;;9.45;3.40;;;0.70;99.90;;;;;;4959818;28;20043;-63
2022/04/02 00:35:47;;;;;;;5.75;3.00;;;0.60;99.90;;;;;;4928357;28;20124;-63
2022/04/02 00:38:13;;;;;;;3.90;3.00;;;0.60;99.90;;;;;;4953054;28;20133;-63
2022/04/02 00:40:42;;;;;;;4.90;3.15;;;0.50;99.90;;;;;;4968178;28;20142;-63
2022/04/02 00:43:24;;;;;;;4.93;3.20;;;0.50;99.90;;;;;;4944356;28;20492;-63
2022/04/02 00:45:51;;;;;;;8.23;3.20;;;0.50;99.90;;;;;;4940739;28;20051;-63
2022/04/02 00:48:18;;;;;;;6.45;3.50;;;0.40;99.90;;;;;;4920969;28;20178;-63
2022/04/02 00:50:52;;;;;;;4.25;2.90;;;0.40;99.90;;;;;;4927692;28;20485;-63
2022/04/02 00:53:20;;;;;;;7.95;3.28;;;0.40;99.90;;;;;;4969145;28;20153;-63
2022/04/02 00:55:46;;;;;;;5.80;3.20;;;0.40;99.90;;;;;;4938310;28;20555;-63
2022/04/02 00:58:12;;;;;;;9.38;3.67;;;0.30;99.90;;;;;;4969002;28;20072;-63
2022/04/02 01:00:40;;;;;;;5.03;3.10;;;0.30;99.90;;;;;;4931414;28;20038;-63
2022/04/02 01:03:08;;;;;;;6.30;3.65;;;0.30;99.90;;;;;;4942586;28;20051;-62
2022/04/02 01:05:35;;;;;;;5.60;3.30;;;0.20;99.90;;;;;;4966335;28;20047;-63
2022/04/02 01:08:05;;;;;;;7.53;3.33;;;0.20;99.90;;;;;;4935750;28;20047;-63
2022/04/02 01:10:35;;;;;;;6.15;3.42;;;0.20;99.90;;;;;;4929575;28;20472;-63
2022/04/02 01:13:02;;;;;;;4.88;3.28;;;0.20;99.90;;;;;;4956271;28;20079;-63
2022/04/02 01:15:28;;;;;;;9.07;3.40;;;0.10;99.90;;;;;;4955839;28;20600;-63
2022/04/02 01:17:54;;;;;;;8.43;3.53;;;0.10;99.90;;;;;;4933699;28;20500;-63
2022/04/02 01:20:20;;;;;;;7.30;3.70;;;0.10;99.90;;;;;;4967510;28;20038;-63
2022/04/02 01:22:47;;;;;;;6.05;2.97;;;0.10;99.90;;;;;;4937652;28;20061;-63
2022/04/02 01:25:12;;;;;;;4.93;3.58;;;0.10;99.90;;;;;;4968739;28;20057;-63
2022/04/02 01:27:38;;;;;;;5.15;3.25;;;0.00;99.90;;;;;;4932706;28;20490;-63
2022/04/02 01:30:06;;;;;;;6.78;3.22;;;0.00;99.90;;;;;;4926888;28;20481;-63
2022/04/02 01:32:32;;;;;;;6.60;3.42;;;0.00;99.90;;;;;;4947998;28;21855;-63
2022/04/02 01:34:59;;;;;;;4.45;3.20;;;0.00;99.90;;;;;;4957546;28;20580;-63
2022/04/02 01:37:24;;;;;;;6.00;3.20;;;0.00;99.90;;;;;;4918197;28;20047;-63
2022/04/02 01:39:51;;;;;;;5.25;3.17;;;0.00;99.90;;;;;;4934940;28;20524;-63
2022/04/02 01:42:24;;;;;;;7.85;3.25;;;0.00;99.90;;;;;;4933935;28;20046;-63
2022/04/02 01:44:51;;;;;;;4.60;2.80;;;0.00;99.90;;;;;;4968814;28;20057;-63
2022/04/02 01:47:21;;;;;;;4.65;2.78;;;0.00;99.90;;;;;;4934701;28;20105;-63
2022/04/02 01:49:48;;;;;;;5.22;3.42;;;0.00;99.90;;;;;;4934842;28;20050;-63
2022/04/02 01:52:16;;;;;;;5.35;3.10;;;0.00;99.90;;;;;;4966890;28;20055;-63
2022/04/02 01:54:49;;;;;;;4.97;3.00;;;0.00;99.90;;;;;;4918061;28;20051;-63
2022/04/02 01:57:16;;;;;;;5.60;3.10;;;0.00;99.90;;;;;;4952304;28;20054;-63
2022/04/02 01:59:44;;;;;;;4.63;3.00;;;0.00;99.90;;;;;;4928962;28;20058;-63
2022/04/02 02:02:11;;;;;;;10.70;3.60;;;0.00;99.90;;;;;;4933617;28;20043;-63
2022/04/02 02:04:37;;;;;;;5.90;3.13;;;-0.10;99.90;;;;;;4948322;28;20477;-63
2022/04/02 02:07:04;;;;;;;7.97;3.38;;;0.00;99.90;;;;;;4964346;28;20050;-62
2022/04/02 02:09:30;;;;;;;4.88;3.03;;;-0.10;99.90;;;;;;4965541;28;20105;-63
2022/04/02 02:11:56;;;;;;;7.43;2.90;;;-0.10;99.90;;;;;;4936837;28;20475;-63
2022/04/02 02:14:23;;;;;;;4.57;2.67;;;-0.10;99.90;;;;;;4934048;28;20043;-62
2022/04/02 02:16:49;;;;;;;6.68;3.42;;;-0.20;99.90;;;;;;4929156;28;20050;-63
2022/04/02 02:19:15;;;;;;;6.50;3.25;;;-0.20;99.90;;;;;;4943061;28;20047;-63
2022/04/02 02:21:41;;;;;;;7.32;3.15;;;-0.20;99.90;;;;;;4911567;28;20047;-63
2022/04/02 02:24:08;;;;;;;4.55;3.13;;;-0.20;99.90;;;;;;4956635;28;20043;-63
2022/04/02 02:26:34;;;;;;;4.03;2.90;;;-0.20;99.90;;;;;;4967167;28;20137;-63
2022/04/02 02:29:01;;;;;;;5.82;3.20;;;-0.20;99.90;;;;;;4949151;28;20079;-63
2022/04/02 02:31:26;;;;;;;8.52;3.10;;;-0.20;99.90;;;;;;4955494;28;20039;-63
2022/04/02 02:36:36;;;;;;;7.07;3.30;;;-0.30;99.90;;;;;;4954528;28;20072;-62
2022/04/02 02:39:03;;;;;;;7.65;3.22;;;-0.30;99.90;;;;;;4934505;28;20547;-63
2022/04/02 02:41:29;;;;;;;6.00;3.10;;;-0.30;99.90;;;;;;4951901;28;20050;-63
2022/04/02 02:43:54;;;;;;;6.32;3.47;;;-0.30;99.90;;;;;;4916018;28;21065;-63
2022/04/02 02:46:20;;;;;;;7.05;3.10;;;-0.40;99.90;;;;;;4932204;28;20642;-62
2022/04/02 02:48:46;;;;;;;8.70;2.95;;;-0.30;99.90;;;;;;4951137;28;20440;-62
2022/04/02 02:51:13;;;;;;;6.28;3.08;;;-0.40;99.90;;;;;;4932521;28;20587;-63
2022/04/02 02:53:39;;;;;;;7.38;3.13;;;-0.40;99.90;;;;;;4956188;28;20043;-62
2022/04/02 02:56:05;;;;;;;6.15;3.47;;;-0.40;99.90;;;;;;4931360;28;20047;-63
2022/04/02 02:58:31;;;;;;;7.30;3.15;;;-0.40;99.90;;;;;;4967033;28;20048;-62
2022/04/02 03:00:57;;;;;;;3.95;3.00;;;-0.50;99.90;;;;;;4923589;28;20768;-63
2022/04/02 03:03:24;;;;;;;7.50;3.00;;;-0.50;99.90;;;;;;4962981;28;20091;-63
2022/04/02 03:05:50;;;;;;;5.25;3.63;;;-0.50;99.90;;;;;;4950352;28;20181;-63
2022/04/02 03:08:16;;;;;;;6.18;3.03;;;-0.60;99.90;;;;;;4978366;28;20065;-63
2022/04/02 03:10:44;;;;;;;6.95;3.13;;;-0.60;99.90;;;;;;4953320;28;20043;-63
2022/04/02 03:13:10;;;;;;;4.70;3.00;;;-0.70;99.90;;;;;;4934083;28;20046;-63
2022/04/02 03:15:36;;;;;;;8.27;3.20;;;-0.70;99.90;;;;;;4933177;28;20109;-62
2022/04/02 03:18:07;;;;;;;6.63;3.10;;;-0.70;99.90;;;;;;4952430;28;20046;-63
2022/04/02 03:20:34;;;;;;;6.18;2.65;;;-0.70;99.90;;;;;;4937489;28;20440;-63
2022/04/02 03:23:00;;;;;;;5.38;2.42;;;-0.70;99.90;;;;;;4950370;28;20050;-63
2022/04/02 03:25:26;;;;;;;6.03;2.35;;;-0.70;99.90;;;;;;4937419;28;20059;-63
2022/04/02 03:27:53;;;;;;;6.40;2.20;;;-0.70;99.90;;;;;;4949507;28;20059;-63
2022/04/02 03:30:22;;;;;;;2.88;2.20;;;-0.70;99.90;;;;;;4928311;28;20051;-63
2022/04/02 03:32:49;;;;;;;3.90;2.38;;;-0.70;99.90;;;;;;4937975;28;20047;-63
2022/04/02 03:35:15;;;;;;;5.95;2.13;;;-0.70;99.90;;;;;;4934978;28;20453;-63
2022/04/02 03:37:43;;;;;;;3.17;1.85;;;-0.70;99.90;;;;;;4933077;28;20054;-62
2022/04/02 03:40:14;;;;;;;5.30;2.40;;;-0.70;99.90;;;;;;4940028;28;20051;-63
2022/04/02 03:42:41;;;;;;;6.70;2.40;;;-0.70;99.90;;;;;;4933614;28;20417;-62
2022/04/02 03:45:09;;;;;;;2.72;1.83;;;-0.70;99.90;;;;;;4926612;28;20047;-63
2022/04/02 03:47:35;;;;;;;5.55;2.20;;;-0.70;99.90;;;;;;4917525;28;20526;-62
2022/04/02 03:50:02;;;;;;;5.03;1.98;;;-0.60;99.90;;;;;;4934275;28;20047;-63
2022/04/02 03:52:28;;;;;;;3.53;1.90;;;-0.60;99.90;;;;;;4952313;28;20047;-63
2022/04/02 03:54:54;;;;;;;5.90;2.03;;;-0.60;99.90;;;;;;4932254;28;20061;-63
2022/04/02 03:57:21;;;;;;;5.38;1.88;;;-0.60;99.90;;;;;;4967223;28;20062;-63
2022/04/02 03:59:47;;;;;;;4.78;1.80;;;-0.60;99.90;;;;;;4927270;28;20221;-62
2022/04/02 04:02:13;;;;;;;5.07;1.90;;;-0.60;99.90;;;;;;4952593;28;20054;-63
2022/04/02 04:04:40;;;;;;;5.00;2.10;;;-0.50;99.90;;;;;;4984601;28;20050;-63
2022/04/02 04:07:07;;;;;;;5.30;2.00;;;-0.50;99.90;;;;;;4932130;28;20055;-63
2022/04/02 04:09:33;;;;;;;4.25;1.85;;;-0.50;99.90;;;;;;4952598;28;20113;-63
2022/04/02 04:11:59;;;;;;;4.40;2.00;;;-0.50;99.90;;;;;;4957074;28;20515;-63
2022/04/02 04:14:26;;;;;;;6.53;2.13;;;-0.50;99.90;;;;;;4951890;28;20540;-63
2022/04/02 04:16:53;;;;;;;3.40;2.03;;;-0.50;99.90;;;;;;4949405;28;20105;-62
2022/04/02 04:19:19;;;;;;;4.22;2.00;;;-0.50;99.90;;;;;;4935945;28;20083;-63
2022/04/02 04:21:46;;;;;;;4.45;2.33;;;-0.50;99.90;;;;;;4935671;28;20050;-63
2022/04/02 04:24:12;;;;;;;4.25;2.25;;;-0.50;99.90;;;;;;4943664;28;20047;-62
2022/04/02 04:26:38;;;;;;;5.10;2.35;;;-0.50;99.90;;;;;;4933461;28;20050;-62
2022/04/02 04:29:04;;;;;;;6.72;2.13;;;-0.50;99.90;;;;;;4969187;28;20516;-63
2022/04/02 04:31:31;;;;;;;4.70;2.08;;;-0.50;99.90;;;;;;4965429;28;20471;-62
2022/04/02 04:33:57;;;;;;;5.60;2.00;;;-0.50;99.90;;;;;;4941538;28;20058;-63
2022/04/02 04:36:23;;;;;;;5.03;1.88;;;-0.40;99.90;;;;;;4934005;28;20043;-62
2022/04/02 04:38:49;;;;;;;6.22;2.10;;;-0.40;99.90;;;;;;4916042;28;20043;-63
2022/04/02 04:41:19;;;;;;;7.00;2.25;;;-0.40;99.90;;;;;;4964251;28;20102;-63
2022/04/02 04:43:48;;;;;;;5.05;2.08;;;-0.30;99.90;;;;;;4958970;28;20631;-62
2022/04/02 04:46:15;;;;;;;5.50;2.22;;;-0.30;99.90;;;;;;4932639;28;20047;-63
2022/04/02 04:48:42;;;;;;;5.72;1.90;;;-0.30;99.90;;;;;;4950339;28;20109;-62
2022/04/02 04:51:09;;;;;;;5.15;2.42;;;-0.20;99.90;;;;;;4926410;28;20607;-63
2022/04/02 04:53:36;;;;;;;10.98;2.58;;;-0.10;99.90;;;;;;4967740;28;20055;-63
2022/04/02 04:56:02;;;;;;;5.15;2.58;;;0.00;99.90;;;;;;4950374;28;20051;-63
2022/04/02 04:58:28;;;;;;;4.57;2.30;;;0.00;99.90;;;;;;4946616;28;20067;-63
2022/04/02 05:00:57;;;;;;;7.00;2.58;;;0.10;99.90;;;;;;4925119;28;20389;-62
2022/04/02 05:03:24;;;;;;;3.55;2.40;;;0.10;99.90;;;;;;4950957;28;20061;-63
2022/04/02 05:05:52;;;;;;;5.57;2.63;;;0.10;99.90;;;;;;4958471;28;20039;-63
2022/04/02 05:08:18;;;;;;;5.05;2.22;;;0.10;99.90;;;;;;4955556;28;20043;-62
2022/04/02 05:10:44;;;;;;;3.58;2.40;;;0.10;99.90;;;;;;4967091;28;20489;-62
2022/04/02 05:13:14;;;;;;;5.50;2.35;;;0.10;99.90;;;;;;4967265;28;20051;-62
2022/04/02 05:15:44;;;;;;;6.13;2.70;;;0.10;99.90;;;;;;4931250;28;20046;-62
2022/04/02 05:18:11;;;;;;;8.25;2.60;;;0.10;99.90;;;;;;4952816;28;20524;-62
2022/04/02 05:20:41;;;;;;;5.90;2.67;;;0.20;99.90;;;;;;4984029;28;20061;-62
2022/04/02 05:23:07;;;;;;;5.30;2.63;;;0.20;99.90;;;;;;4947102;28;20046;-62
2022/04/02 05:25:34;;;;;;;5.43;3.10;;;0.30;99.90;;;;;;4946264;28;20161;-62
2022/04/02 05:28:04;;;;;;;4.28;2.50;;;0.20;99.90;;;;;;4957065;28;20121;-63
2022/04/02 05:30:32;;;;;;;9.95;2.80;;;0.30;99.90;;;;;;4940279;28;20396;-62
2022/04/02 05:32:58;;;;;;;5.05;2.63;;;0.30;99.90;;;;;;4948190;28;20070;-62
2022/04/02 05:35:23;;;;;;;5.03;2.30;;;0.30;99.90;;;;;;4969465;28;20613;-62
2022/04/02 05:37:52;;;;;;;6.10;2.50;;;0.40;99.90;;;;;;4942542;28;20043;-62
2022/04/02 05:40:18;;;;;;;5.97;3.00;;;0.40;99.90;;;;;;4933570;28;20050;-63
2022/04/02 05:42:45;;;;;;;5.13;2.45;;;0.50;99.90;;;;;;4933278;28;20480;-63
2022/04/02 05:45:12;;;;;;;3.92;2.33;;;0.50;99.90;;;;;;4959999;28;20081;-62
2022/04/02 05:47:49;;;;;;;4.40;2.50;;;0.60;99.90;;;;;;4965465;28;20047;-62
2022/04/02 05:50:17;;;;;;;6.45;2.47;;;0.60;99.90;;;;;;4956447;28;20043;-62
2022/04/02 05:52:43;;;;;;;4.00;2.50;;;0.70;99.90;;;;;;4926576;28;20045;-63
2022/04/02 05:55:10;;;;;;;4.22;2.42;;;0.70;99.90;;;;;;4933627;28;20035;-62
2022/04/02 05:57:38;;;;;;;7.65;2.75;;;0.80;99.90;;;;;;4966192;28;20043;-62
2022/04/02 06:00:08;;;;;;;4.22;2.17;;;0.90;99.90;;;;;;4954701;28;20508;-62
2022/04/02 06:02:35;;;;;;;5.18;2.15;;;1.00;99.90;;;;;;4949741;28;20047;-62
2022/04/02 06:05:01;;;;;;;4.95;2.40;;;1.00;99.90;;;;;;4930684;28;20541;-63
2022/04/02 06:07:27;;;;;;;6.13;2.65;;;1.10;99.90;;;;;;4940297;28;20552;-63
2022/04/02 06:09:53;;;;;;;5.25;3.22;;;1.20;99.90;;;;;;4937298;28;20478;-62
2022/04/02 06:12:19;;;;;;;5.82;2.80;;;1.20;99.90;;;;;;4935744;28;20058;-63
2022/04/02 06:14:44;;;;;;;7.55;2.92;;;1.20;99.90;;;;;;4960758;28;20682;-63
2022/04/02 06:17:10;;;;;;;3.10;2.47;;;1.30;99.90;;;;;;4933426;28;20442;-63
2022/04/02 06:19:36;;;;;;;4.90;2.35;;;1.30;99.90;;;;;;4937507;28;20637;-63
2022/04/02 06:22:06;;;;;;;8.80;3.50;;;1.30;99.90;;;;;;4968728;28;20484;-63
2022/04/02 06:24:35;;;;;;;5.57;2.50;;;1.30;99.90;;;;;;4971298;28;20519;-63
2022/04/02 06:27:02;;;;;;;5.90;2.78;;;1.40;99.90;;;;;;4966619;28;20085;-63
2022/04/02 06:29:28;;;;;;;5.30;3.10;;;1.40;99.90;;;;;;4966402;28;20054;-62
2022/04/02 06:31:54;;;;;;;5.82;3.13;;;1.50;99.90;;;;;;4943294;28;20143;-63
2022/04/02 06:34:20;;;;;;;7.93;3.30;;;1.50;99.90;;;;;;4931247;28;20066;-62
2022/04/02 06:36:46;;;;;;;6.05;3.30;;;1.50;99.90;;;;;;4932563;28;20125;-63
2022/04/02 06:39:14;;;;;;;4.50;2.65;;;1.60;99.90;;;;;;4965502;28;20098;-62
2022/04/02 06:41:41;;;;;;;4.40;3.03;;;1.60;99.90;;;;;;4932232;28;20082;-63
2022/04/02 06:44:08;;;;;;;5.72;3.10;;;1.60;99.90;;;;;;4935878;28;20088;-63
2022/04/02 06:46:37;;;;;;;7.20;3.00;;;1.60;99.90;;;;;;4930662;28;20058;-63
2022/04/02 06:49:06;;;;;;;4.55;2.72;;;1.70;99.90;;;;;;4965719;28;20047;-63
2022/04/02 06:51:36;;;;;;;7.22;3.45;;;1.70;99.90;;;;;;4950303;28;20073;-62
2022/04/02 06:54:02;;;;;;;7.53;3.10;;;1.80;99.90;;;;;;4964764;28;20043;-62
2022/04/02 06:56:28;;;;;;;3.95;3.00;;;1.80;99.90;;;;;;4967388;28;20468;-63
2022/04/02 06:58:54;;;;;;;3.95;3.00;;;1.90;99.90;;;;;;4944839;28;20063;-63
2022/04/02 07:01:20;;;;;;;7.07;2.83;;;1.90;99.90;;;;;;4964338;28;20460;-63
2022/04/02 07:03:46;;;;;;;3.80;2.67;;;1.90;99.90;;;;;;4930811;28;20071;-63
2022/04/02 07:06:12;;;;;;;5.43;3.00;;;2.00;99.90;;;;;;4931136;29;20044;-63
2022/04/02 07:08:38;;;;;;;4.40;2.47;;;2.00;99.90;;;;;;4937406;29;20051;-63
2022/04/02 07:11:05;;;;;;;5.13;2.80;;;2.00;99.90;;;;;;4933750;28;20053;-63
2022/04/02 07:13:31;;;;;;;4.60;2.85;;;2.00;99.90;;;;;;4931924;28;20050;-63
2022/04/02 07:15:57;;;;;;;4.57;3.05;;;2.00;99.90;;;;;;4929396;28;22033;-63
2022/04/02 07:18:26;;;;;;;6.15;3.10;;;1.90;99.90;;;;;;4946349;28;20518;-62
2022/04/02 07:20:53;;;;;;;7.45;3.10;;;1.90;99.90;;;;;;4932210;28;20047;-63
2022/04/02 07:23:20;;;;;;;5.53;2.70;;;1.80;99.90;;;;;;4928617;28;20054;-63
2022/04/02 07:25:48;;;;;;;4.13;2.47;;;1.70;99.90;;;;;;4930174;28;20575;-63
2022/04/02 07:28:14;;;;;;;3.83;2.28;;;1.70;99.90;;;;;;4926093;28;20059;-63
2022/04/02 07:30:40;;;;;;;5.47;2.50;;;1.50;99.90;;;;;;4943507;28;20181;-63
2022/04/02 07:33:06;;;;;;;7.13;2.05;;;1.50;99.90;;;;;;4960491;28;20374;-63
2022/04/02 07:35:37;;;;;;;4.78;2.30;;;1.40;99.90;;;;;;4962944;28;20046;-63
2022/04/02 07:38:12;;;;;;;3.55;2.20;;;1.40;99.90;;;;;;4928804;28;20060;-63
2022/04/02 07:40:49;;;;;;;3.60;2.20;;;1.40;99.90;;;;;;4949551;28;20122;-63
2022/04/02 07:43:32;;;;;;;4.90;2.42;;;1.40;99.90;;;;;;4959840;28;20052;-62
2022/04/02 07:46:16;;;;;;;3.22;2.33;;;1.40;99.90;;;;;;4934061;28;20839;-62
2022/04/02 07:48:46;;;;;;;3.03;2.10;;;1.40;99.90;;;;;;4928738;28;20066;-63
2022/04/02 07:51:15;;;;;;;5.30;2.22;;;1.40;99.90;;;;;;4928308;28;20035;-63
2022/04/02 07:53:46;;;;;;;6.80;2.50;;;1.40;99.90;;;;;;4930075;28;20535;-62
2022/04/02 07:56:18;;;;;;;4.68;2.08;;;1.50;99.90;;;;;;4959890;28;20142;-62
2022/04/02 07:58:51;;;;;;;4.00;1.95;;;1.60;99.90;;;;;;4961306;28;20502;-62
2022/04/02 08:01:18;;;;;;;4.25;2.05;;;1.80;99.90;;;;;;4929974;28;20054;-62
2022/04/02 08:03:46;;;;;;;4.72;1.92;;;1.90;99.90;;;;;;4922429;28;20050;-60
2022/04/02 08:06:15;;;;;;;5.03;1.85;;;2.10;99.90;;;;;;4930738;28;20134;-63
2022/04/02 08:08:42;;;;;;;2.67;1.77;;;2.30;99.90;;;;;;4937990;28;20043;-63
2022/04/02 08:11:12;;;;;;;3.53;1.98;;;2.50;99.90;;;;;;4967226;28;20489;-62
2022/04/02 08:13:41;;;;;;;4.45;1.88;;;2.70;99.90;;;;;;4938689;28;20047;-63
2022/04/02 08:16:08;;;;;;;3.15;1.92;;;2.90;99.90;;;;;;4938004;28;20048;-63
2022/04/02 08:18:34;;;;;;;5.47;2.00;;;3.20;99.90;;;;;;4928478;29;20110;-63
2022/04/02 08:21:02;;;;;;;2.83;1.70;;;3.40;99.90;;;;;;4965865;28;20058;-63
2022/04/02 08:23:29;;;;;;;4.93;1.88;;;3.60;99.90;;;;;;4932885;28;20052;-62
2022/04/02 08:26:21;;;;;;;3.20;1.83;;;3.80;99.90;;;;;;4965315;28;20044;-63
2022/04/02 08:29:32;;;;;;;3.43;2.20;;;3.90;99.90;;;;;;4907111;28;20516;-63
2022/04/02 08:32:17;;;;;;;4.43;1.98;;;4.00;99.90;;;;;;4902580;29;21327;-63
2022/04/02 08:34:58;;;;;;;3.47;1.85;;;4.10;99.90;;;;;;4915969;29;20147;-63
2022/04/02 08:38:04;;;;;;;6.35;1.80;;;4.20;99.90;;;;;;4923454;28;20470;-63
2022/04/02 08:40:49;;;;;;;7.03;2.00;;;4.30;99.90;;;;;;4932396;28;20043;-63
2022/04/02 08:43:15;;;;;;;6.80;1.85;;;4.40;99.90;;;;;;4939284;28;20054;-63
2022/04/02 08:45:53;;;;;;;4.47;1.70;;;4.50;99.90;;;;;;4935872;28;20982;-62
2022/04/02 08:48:21;;;;;;;5.18;1.90;;;4.70;99.90;;;;;;4959938;28;20577;-63
2022/04/02 08:50:49;;;;;;;5.35;1.77;;;4.90;99.90;;;;;;4932473;28;20082;-63
2022/04/02 08:53:43;;;;;;;2.35;1.70;;;5.10;99.70;;;;;;4949478;28;20473;-63
2022/04/02 08:56:16;;;;;;;6.07;1.70;;;5.20;99.60;;;;;;4936451;28;20044;-63
2022/04/02 08:59:04;;;;;;;7.63;1.88;;;5.50;98.00;;;;;;4929797;28;20081;-63
2022/04/02 09:01:42;;;;;;;7.88;1.60;;;5.60;96.60;;;;;;4968623;28;20066;-63
2022/04/02 09:04:47;;;;;;;3.45;1.60;;;5.60;95.30;;;;;;4927366;28;20454;-60
2022/04/02 09:07:41;;;;;;;3.20;1.30;;;5.50;95.30;;;;;;4933992;28;20052;-63
2022/04/02 09:10:45;;;;;;;2.95;1.45;;;5.60;95.80;;;;;;4929719;28;20043;-62
2022/04/02 09:13:25;;;;;;;4.82;1.70;;;5.80;95.70;;;;;;4933621;28;20051;-63
2022/04/02 09:16:08;;;;;;;3.45;1.40;;;5.90;94.80;;;;;;4931135;28;20181;-63
2022/04/02 09:18:36;;;;;;;2.22;1.45;;;6.00;93.40;;;;;;4961776;28;20139;-63
2022/04/02 09:21:29;;;;;;;4.72;1.60;;;6.10;93.70;;;;;;4949663;28;20057;-63
2022/04/02 09:24:20;;;;;;;5.45;1.80;;;6.30;91.90;;;;;;4925197;28;20059;-63
2022/04/02 09:27:25;;;;;;;4.45;1.50;;;6.30;86.80;;;;;;4928799;28;20468;-63
2022/04/02 09:29:59;;;;;;;3.13;1.48;;;6.00;89.30;;;;;;4961251;28;20110;-63
2022/04/02 09:32:52;;;;;;;3.67;1.40;;;5.90;90.20;;;;;;4942616;28;20121;-63
2022/04/02 09:35:24;;;;;;;7.47;1.85;;;5.80;89.80;;;;;;4929138;28;20074;-62
2022/04/02 09:38:25;;;;;;;4.30;1.50;;;5.90;89.50;;;;;;4935256;28;20048;-63
2022/04/02 09:40:53;;;;;;;3.45;1.73;;;6.10;88.80;;;;;;4939074;28;20130;-63
2022/04/02 09:43:42;;;;;;;6.45;1.83;;;6.30;89.70;;;;;;4924629;28;20055;-63
2022/04/02 09:46:29;;;;;;;3.63;1.60;;;6.60;88.40;;;;;;4927832;28;20134;-63
2022/04/02 09:49:27;;;;;;;6.57;1.50;;;6.80;87.20;;;;;;4928870;28;20052;-64
2022/04/02 09:52:02;;;;;;;5.22;1.98;;;6.90;83.40;;;;;;4952422;28;22001;-63
2022/04/02 09:54:40;;;;;;;5.55;1.70;;;6.80;83.40;;;;;;4959971;28;20149;-62
2022/04/02 09:57:23;;;;;;;3.78;1.48;;;6.70;80.70;;;;;;4925479;28;20066;-63
2022/04/02 09:59:58;;;;;;;;;;;6.60;79.20;;;;;;4960104;28;20469;-63
2022/04/02 10:02:49;;;;;;;6.10;1.60;;;6.60;81.00;;;;;;4919007;28;19925;-63
2022/04/02 10:05:22;;;;;;;2.63;1.42;;;6.60;80.00;;;;;;4926557;28;20051;-63
2022/04/02 10:08:05;;;;;;;2.60;1.63;;;6.70;81.20;;;;;;4925654;28;20054;-63
2022/04/02 10:10:31;;;;;;;2.65;1.40;;;6.90;81.20;;;;;;4923190;28;20170;-63
2022/04/02 10:12:57;;;;;;;3.88;1.60;;;6.90;78.50;;;;;;4931950;28;20047;-63
2022/04/02 10:15:24;;;;;;;5.97;1.73;;;7.00;79.10;;;;;;4960136;28;20087;-63
2022/04/02 10:17:52;;;;;;;5.30;1.90;;;7.00;80.10;;;;;;4927591;28;20478;-63
2022/04/02 10:20:29;;;;;;;2.90;1.50;;;6.90;79.20;;;;;;4963512;28;20066;-63
2022/04/02 10:23:22;;;;;;;2.40;1.60;;;6.80;78.30;;;;;;4917790;28;20098;-63
2022/04/02 10:26:10;;;;;;;2.40;1.40;;;7.00;79.30;;;;;;4924126;28;20061;-63
2022/04/02 10:28:53;;;;;;;2.88;1.42;;;7.10;73.60;;;;;;4927258;28;20580;-62
2022/04/02 10:31:37;;;;;;;2.75;1.50;;;7.00;72.50;;;;;;4934948;28;20055;-63
2022/04/02 10:34:19;;;;;;;3.13;1.40;;;6.90;73.90;;;;;;4956396;28;20043;-63
2022/04/02 10:37:17;;;;;;;2.85;1.50;;;6.90;75.00;;;;;;4924968;28;20782;-63
2022/04/02 10:39:57;;;;;;;2.88;1.65;;;6.90;76.00;;;;;;4934975;28;20064;-64
2022/04/02 10:42:34;;;;;;;3.95;1.83;;;7.00;77.50;;;;;;4941148;28;20525;-63
2022/04/02 10:45:07;;;;;;;3.65;1.60;;;7.10;78.10;;;;;;4932462;28;20067;-63
2022/04/02 10:47:38;;;;;;;3.85;1.50;;;7.00;77.10;;;;;;4929693;28;20051;-63
2022/04/02 10:50:06;;;;;;;4.60;1.60;;;7.10;77.60;;;;;;4959228;28;20401;-63
2022/04/02 10:52:34;;;;;;;5.68;1.30;;;7.00;75.60;;;;;;4957886;28;20047;-63
2022/04/02 10:55:01;;;;;;;3.20;1.60;;;6.90;73.10;;;;;;4932092;28;20047;-63
2022/04/02 10:57:32;;;;;;;2.97;1.48;;;6.70;72.20;;;;;;4940242;28;20090;-63
2022/04/02 11:00:09;;;;;;;5.30;1.65;;;6.60;71.80;;;;;;4942748;28;20777;-63
2022/04/02 11:02:41;;;;;;;4.80;1.50;;;6.50;70.90;;;;;;4922466;28;20069;-63
2022/04/02 11:05:13;;;;;;;5.35;1.98;;;6.50;70.60;;;;;;4910690;28;20191;-63
2022/04/02 11:07:43;;;;;;;2.10;1.20;;;6.60;69.80;;;;;;4936954;28;20052;-63
2022/04/02 11:10:20;;;;;;;3.55;1.52;;;6.60;69.50;;;;;;4940546;28;20052;-63
2022/04/02 11:12:48;;;;;;;3.20;1.60;;;6.70;69.50;;;;;;4929390;28;20440;-63
2022/04/02 11:15:23;;;;;;;1.90;1.38;;;6.70;69.40;;;;;;4954497;28;20486;-63
2022/04/02 11:17:52;;;;;;;4.88;1.30;;;6.80;69.10;;;;;;4923124;28;20055;-63
2022/04/02 11:20:22;;;;;;;4.13;1.42;;;6.90;68.10;;;;;;4929823;28;20106;-63
2022/04/02 11:22:51;;;;;;;2.92;1.35;;;6.90;67.00;;;;;;4959784;28;20059;-63
2022/04/02 11:25:28;;;;;;;5.40;1.45;;;6.80;67.50;;;;;;4955994;28;20492;-62
2022/04/02 11:28:13;;;;;;;2.75;1.38;;;7.00;67.90;;;;;;4911894;28;20490;-62
2022/04/02 11:30:42;;;;;;;4.07;1.52;;;7.10;67.00;;;;;;4955034;28;20043;-63
2022/04/02 11:33:30;;;;;;;2.78;1.40;;;7.20;66.90;;;;;;4925515;28;20055;-63
2022/04/02 11:36:09;;;;;;;2.08;1.40;;;7.20;65.80;;;;;;4910640;28;20050;-63
2022/04/02 11:38:47;;;;;;;2.67;1.60;;;7.20;65.10;;;;;;4935754;28;20055;-63
2022/04/02 11:41:28;;;;;;;5.60;1.70;;;7.20;64.40;;;;;;4966159;28;20055;-63
2022/04/02 11:44:09;;;;;;;3.45;1.33;;;7.10;65.10;;;;;;4911351;28;20073;-63
2022/04/02 11:46:55;;;;;;;5.03;1.58;;;7.00;65.20;;;;;;4931000;28;20374;-63
2022/04/02 11:49:39;;;;;;;3.60;1.52;;;6.90;66.30;;;;;;4944624;28;20074;-63
2022/04/02 11:52:11;;;;;;;4.03;1.35;;;6.90;66.30;;;;;;4914787;28;20079;-63
2022/04/02 11:54:41;;;;;;;4.38;1.60;;;6.90;66.70;;;;;;4914211;28;20525;-62
2022/04/02 11:57:12;;;;;;;4.55;1.67;;;6.90;65.60;;;;;;4921071;28;20067;-63
2022/04/02 11:59:55;;;;;;;1.98;1.30;;;6.90;64.80;;;;;;4939719;28;20176;-63
2022/04/02 12:02:41;;;;;;;3.42;1.52;;;7.10;65.70;;;;;;4967956;28;20051;-63
2022/04/02 12:05:10;;;;;;;3.00;1.33;;;7.50;65.40;;;;;;4934762;28;20051;-63
2022/04/02 12:07:44;;;;;;;4.63;1.70;;;8.00;65.10;;;;;;4942102;28;20106;-63
2022/04/02 12:10:25;;;;;;;5.68;1.63;;;8.20;64.60;;;;;;4951478;28;21141;-63
2022/04/02 12:12:53;;;;;;;3.85;1.50;;;8.10;64.30;;;;;;4965976;28;20048;-63
2022/04/02 12:15:20;;;;;;;2.42;1.40;;;8.10;64.30;;;;;;4941523;28;20047;-63
2022/04/02 12:17:51;;;;;;;4.43;1.50;;;8.00;64.70;;;;;;4929411;28;20145;-63
2022/04/02 12:20:39;;;;;;;2.75;1.45;;;7.70;64.00;;;;;;4934602;28;20078;-63
2022/04/02 12:23:12;;;;;;;3.80;1.50;;;7.60;64.30;;;;;;4949949;28;20070;-63
2022/04/02 12:25:40;;;;;;;1.92;1.13;;;7.30;64.30;;;;;;4957867;28;20130;-63
2022/04/02 12:28:12;;;;;;;4.68;1.40;;;7.40;64.10;;;;;;4932310;28;20476;-63
2022/04/02 12:30:41;;;;;;;3.05;1.38;;;7.60;63.70;;;;;;4963230;28;20055;-62
2022/04/02 12:33:08;;;;;;;4.38;1.55;;;7.60;63.50;;;;;;4947607;28;20047;-62
2022/04/02 12:35:34;;;;;;;1.70;1.33;;;7.50;63.10;;;;;;4945068;28;20517;-63
2022/04/02 12:38:05;;;;;;;6.07;1.50;;;7.30;63.30;;;;;;4949891;28;20055;-63
2022/04/02 12:40:33;;;;;;;1.50;1.40;;;7.20;63.70;;;;;;4947116;28;20046;-63
2022/04/02 12:43:06;;;;;;;5.60;1.50;;;7.20;64.70;;;;;;4931761;28;20057;-63
2022/04/02 12:45:33;;;;;;;3.78;1.65;;;7.50;65.10;;;;;;4952694;28;20130;-63
2022/04/02 12:48:14;;;;;;;2.53;1.40;;;7.90;65.40;;;;;;4946637;28;20465;-63
2022/04/02 12:50:55;;;;;;;2.53;1.40;;;8.30;64.40;;;;;;4963912;28;20085;-63
2022/04/02 12:53:38;;;;;;;2.53;1.50;;;8.40;63.50;;;;;;4963687;28;20398;-64
2022/04/02 12:56:10;;;;;;;3.08;1.33;;;8.30;62.90;;;;;;4944601;28;20050;-62
2022/04/02 12:58:41;;;;;;;4.57;1.30;;;8.00;61.00;;;;;;4975841;28;20493;-64
2022/04/02 13:01:20;;;;;;;2.15;1.15;;;7.80;60.70;;;;;;4947459;28;20153;-63
2022/04/02 13:03:54;;;;;;;2.35;1.30;;;7.70;60.10;;;;;;4930105;28;20452;-63
2022/04/02 13:06:22;;;;;;;2.85;1.40;;;7.80;60.00;;;;;;4932302;28;20042;-63
2022/04/02 13:09:12;;;;;;;4.10;1.73;;;7.90;60.40;;;;;;4932601;28;20089;-63
2022/04/02 13:11:52;;;;;;;4.65;1.55;;;8.10;61.70;;;;;;4925148;28;20715;-62
2022/04/02 13:14:34;;;;;;;3.00;1.30;;;8.30;60.90;;;;;;4946567;28;20118;-63
2022/04/02 13:17:11;;;;;;;4.20;1.25;;;8.60;60.00;;;;;;4942694;28;20090;-63
2022/04/02 13:22:46;;;;;;;5.13;1.33;;;9.40;60.00;;;;;;4963226;28;20054;-63